logo
App data

KEK Story

Store | Hub | SteamDB
Developer: Sultan.emr Publisher: DIAMOND FOX, Chaiker
Genre: Adventure, Casual, Indie
Languages: English
Tags: Casual (22), Adventure (21), Indie (21)
Category: Single-player, Steam Achievements, Steam Trading Cards, Partial Controller Support
Release date: Mar 6, 2017
N/A
Owners: 0 .. 20,000
Followers: 0
Peak concurrent players yesterday: 1

Steam Spy is still in beta, so expect major bugs.

Owners data:

Access restricted.

This feature is only available to users with special access rights. Sorry.

If you want to proceed, you need to register or log in first and then back Steam Spy on Patreon. Look for Indie or Pro pledge.

Don't forget to use the same email as on Steam Spy!

Audience in 2 weeks:

Access restricted.

This feature is only available to users with special access rights. Sorry.

If you want to proceed, you need to register or log in first and then back Steam Spy on Patreon. Look for Indie or Pro pledge.

Don't forget to use the same email as on Steam Spy!

Peak daily concurrent players:

CCU data courtesy of SteamDB. Used with permission.

Hourly concurrent players:

YouTube:

The views data is based on top 50 videos uploaded last week. Actual number of views might be more than the number shown.

The displayed number of videos uploaded yesterday is limited to 50, so if there were more videos uploaded, the number will still show 50.

If the game has commonly used word as its name (like "FEAR" or "Volume") its number of Youtube views might be wrong.

Games similar to this one:

# Game Release date
Price
Score rank
(Userscore / Metascore)
Owners
Players
Playtime (Median)
1 Night Blights Apr 15, 2016 $4.99N/A (N/A)0 .. 20,0000%00:00 (00:00)
2 Everyday Genius: SquareLogic Oct 21, 2009 $4.99N/A (N/A)0 .. 20,0000%00:00 (00:00)
3 Moonlight Feb 5, 2016 $2.99N/A (N/A)0 .. 20,0000%00:00 (00:00)
4 Divide By Sheep Jul 2, 2015 $4.99N/A (N/A/83%)100,000 .. 200,0000%00:00 (00:00)
5 Unium Mar 27, 2015 $1.99N/A (N/A)20,000 .. 50,0000%00:00 (00:00)
6 Mevo and The Grooveriders Mar 20, 2009 $9.99N/A (N/A)0 .. 20,0000%00:00 (00:00)
7 Cloudberry Kingdom Aug 2, 2013 $9.99N/A (N/A/67%)20,000 .. 50,0000%00:00 (00:00)
8 Koala Kids Jun 22, 2015 $0.99N/A (N/A)20,000 .. 50,0001.89%00:01 (00:00)
9 Gigachess Dec 15, 2015 $3.99N/A (N/A)0 .. 20,0000%00:00 (00:00)
10 The Way We All Go Mar 24, 2015 $5.99N/A (N/A)0 .. 20,0000%00:00 (00:00)
11 Estiman Nov 23, 2016 $0.49N/A (N/A)0 .. 20,0000%00:00 (00:00)
12 This Starry Midnight We Make Jun 1, 2015 $9.99N/A (N/A)0 .. 20,0000%00:00 (00:00)
13 Forgotten, Not Lost - A Kinetic Novel Apr 1, 2016 $1.9967% (89%)100,000 .. 200,0009.18%03:45 (04:29)
14 Lobotomy Corporation | Monster Management Simulation Apr 9, 2018 $24.9964% (88%)50,000 .. 100,0009.09%00:07 (00:02)
15 In Between Aug 21, 2015 $11.99N/A (N/A/68%)50,000 .. 100,0000.79%00:04 (00:01)
16 Rooms: The Unsolvable Puzzle May 1, 2015 $8.99N/A (N/A/66%)0 .. 20,0000%00:00 (00:00)
17 Security Hole Sep 28, 2016 $9.99N/A (N/A)0 .. 20,0000%00:00 (00:00)
18 Masochisia Oct 9, 2015 $7.99N/A (N/A/68%)0 .. 20,0000%00:00 (00:00)
19 Anode Oct 5, 2015 $3.99N/A (N/A)0 .. 20,0000%00:00 (00:00)
20 Alpha Runner Sep 2, 2015 $0.99N/A (N/A)50,000 .. 100,0001.12%01:36 (00:46)
21 Project Starship Apr 5, 2016 $0.9952% (84%)200,000 .. 500,0001.35%04:45 (04:30)
22 Governor of Poker 2 - Premium Edition Oct 11, 2010 $14.9952% (84%)20,000 .. 50,0000%00:00 (00:00)
23 Crash Drive 2 May 28, 2015 $4.9952% (84%)50,000 .. 100,0000%00:00 (00:00)
24 Sentinel 4: Dark Star Aug 13, 2015 $6.99N/A (N/A)0 .. 20,0000%00:00 (00:00)
25 Cute Things Dying Violently Sep 2, 2015 $2.99N/A (N/A)0 .. 20,0000%00:00 (00:00)
26 Space Drifters 2D Mar 28, 2016 $0.99N/A (N/A)0 .. 20,0000%00:00 (00:00)
27 Stay Alight Mar 2, 2015 $3.99N/A (N/A)20,000 .. 50,0000%00:00 (00:00)
28 Star Sky - Oct 23, 2015 $3.99N/A (N/A)0 .. 20,0000%00:00 (00:00)
29 Collisions Jul 28, 2015 $3.99N/A (N/A)20,000 .. 50,0000%00:00 (00:00)
30 Automation - The Car Company Tycoon Game Mar 12, 2015 $29.9941% (79%)50,000 .. 100,00033.33%03:23 (02:15)
31 CAPSULE May 29, 2014 $4.99N/A (N/A)0 .. 20,0000%00:00 (00:00)
32 The Last NightMary - A Lenda do Cabea de Cuia Nov 2, 2015 $0.49N/A (N/A)50,000 .. 100,0000%00:00 (00:00)
33 GamersGoMakers Aug 8, 2014 $9.99N/A (N/A)20,000 .. 50,0000%00:00 (00:00)
34 Egg Returns Home May 5, 2015 $1.99N/A (N/A)20,000 .. 50,0000%00:00 (00:00)
35 Ionball 2: Ionstorm Jun 6, 2014 $4.99N/A (N/A/70%)200,000 .. 500,0000.31%01:31 (00:30)
36 Iron Sea Defenders Sep 9, 2016 $4.99N/A (N/A)20,000 .. 50,0000%00:00 (00:00)
37 Ancients of Ooga May 20, 2011 $9.99N/A (N/A)20,000 .. 50,0000%00:00 (00:00)
38 Until I Have You Apr 4, 2016 $2.0939% (78%)0 .. 20,0000%00:00 (00:00)
39 MXGP - The Official Motocross Videogame Mar 28, 2014 $19.99N/A (N/A)20,000 .. 50,0000%00:00 (00:00)
40 Particulars Nov 19, 2014 $5.99N/A (N/A/74%)20,000 .. 50,0000%00:00 (00:00)
41 Keen Dreams Sep 28, 2015 $4.99N/A (N/A)50,000 .. 100,0000%00:00 (00:00)
42 Neon Prism Nov 18, 2016 $0.49N/A (N/A)50,000 .. 100,0000.47%00:01 (00:00)
43 Paranormal State: Poison Spring Apr 9, 2014 $9.99N/A (N/A)20,000 .. 50,0000%00:00 (00:00)
44 The Deletion Jul 30, 2015 $1.99N/A (N/A)20,000 .. 50,0000%00:00 (00:00)
45 Pixel Puzzles 2: Birds Feb 20, 2015 $9.99N/A (N/A)100,000 .. 200,0001.43%04:39 (04:39)
46 Alchemy Mysteries: Prague Legends Dec 22, 2014 $1.99N/A (N/A)100,000 .. 200,0000%00:00 (00:00)
47 Caravanserail Mar 10, 2016 $2.99N/A (N/A)0 .. 20,0001.67%03:00 (01:00)
48 Mayhem Intergalactic Jan 22, 2009 $9.99N/A (N/A)0 .. 20,0000%00:00 (00:00)
49 BalanCity Sep 21, 2016 $7.99N/A (N/A)20,000 .. 50,0000%00:00 (00:00)
50 Riddles Of The Past Jul 22, 2016 $6.99N/A (N/A)0 .. 20,0000%00:00 (00:00)
51 Crashed Lander Feb 4, 2015 $0.99N/A (N/A)0 .. 20,0000%00:00 (00:00)
52 Viking Brothers Apr 23, 2014 $9.99N/A (N/A)0 .. 20,0000%00:00 (00:00)
53 Laserlife Sep 22, 2015 $14.99N/A (N/A)0 .. 20,0000%00:00 (00:00)
54 Crash Wheels Dec 14, 2016 $4.99N/A (N/A)0 .. 20,0007.14%01:08 (00:22)
55 Strategy & Tactics: Dark Ages Aug 4, 2017 $14.99N/A (N/A)20,000 .. 50,0001.56%00:01 (00:00)
56 Wildlife Park 2 Jul 17, 2014 $6.99N/A (N/A)50,000 .. 100,0000%00:00 (00:00)
57 Impossible Quest Jun 3, 2016 $1.99N/A (N/A)0 .. 20,0000%00:00 (00:00)
58 Ace Of Words May 13, 2016 $2.49N/A (N/A)100,000 .. 200,0001.02%00:02 (00:01)
59 Cheesecake Cool Conrad Oct 8, 2014 $4.99N/A (N/A)0 .. 20,0000%00:00 (00:00)
60 Mind Games Mar 4, 2016 $2.99N/A (N/A)0 .. 20,0000%00:00 (00:00)
61 Marble Duel Nov 12, 2015 $4.9921% (66%)100,000 .. 200,0003%00:06 (00:05)
62 Meadowland Oct 22, 2014 $3.99N/A (N/A)0 .. 20,0000%00:00 (00:00)
63 Won't You Be My Laser? Sep 2, 2016 $0.99N/A (N/A)0 .. 20,0000%00:00 (00:00)
64 Goodnight Butcher Dec 18, 2015 $1.99N/A (N/A)20,000 .. 50,0000%00:00 (00:00)
65 Pixel Survivors May 5, 2016 $0.99N/A (N/A)50,000 .. 100,0000%00:00 (00:00)
66 Annie Amber Jun 17, 2016 $1.19N/A (N/A)0 .. 20,0003.57%03:11 (01:03)
67 Reset 1-1 Aug 30, 2016 $1.99N/A (N/A)100,000 .. 200,0001.29%03:42 (04:13)
68 Hoplite Dec 14, 2016 $0.99N/A (N/A)100,000 .. 200,0000%00:00 (00:00)
69 Metrocide Dec 15, 2014 $12.99N/A (N/A/68%)50,000 .. 100,0000%00:00 (00:00)
70 Star Chronicles: Delta Quadrant Jul 7, 2015 $0.9913% (58%)200,000 .. 500,0000.31%01:08 (00:45)
71 Boss Monster Apr 28, 2016 $4.9913% (58%)20,000 .. 50,0000%00:00 (00:00)
72 Autocraft Sep 20, 2017 $9.99N/A (N/A)20,000 .. 50,0000%00:00 (00:00)
73 Hardware Engineering Sep 28, 2016 $5.99N/A (N/A)0 .. 20,0000%00:00 (00:00)
74 The Good Life Nov 21, 2014 $9.99N/A (N/A)0 .. 20,0000%00:00 (00:00)
75 Luke Sidewalker Dec 5, 2016 $0.99N/A (N/A)50,000 .. 100,0000%00:00 (00:00)
76 Pointless Feb 22, 2016 FreeN/A (N/A)0 .. 20,0000%00:00 (00:00)
77 Cosmonautica Jul 31, 2015 $9.998% (51%)100,000 .. 200,0000%00:00 (00:00)
78 Quantum Rush Champions Dec 4, 2014 $9.99N/A (N/A)20,000 .. 50,0000%00:00 (00:00)
79 Melting Hearts: Our Love Will Grow 2 Apr 29, 2016 $4.99N/A (N/A)0 .. 20,0000%00:00 (00:00)
80 Autumn May 14, 2016 $2.99N/A (N/A)50,000 .. 100,0000%00:00 (00:00)
81 Evolution Jun 6, 2016 FreeN/A (N/A)0 .. 20,0000%00:00 (00:00)
82 White Mirror Jan 26, 2016 $1.99N/A (N/A)100,000 .. 200,0000%00:00 (00:00)
83 Robot vs Birds Zombies Jul 23, 2015 $0.99N/A (N/A)0 .. 20,0000%00:00 (00:00)
84 Guardians of Victoria Apr 29, 2016 $1.99N/A (N/A)200,000 .. 500,0000.34%03:57 (03:47)
85 The Architect Jun 4, 2015 $2.99N/A (N/A)0 .. 20,0000%00:00 (00:00)
86 The Battle for Sector 219 Jun 2, 2016 $6.99N/A (N/A)0 .. 20,0005.26%01:09 (00:23)
87 Magic Box Jan 19, 2017 $0.99N/A (N/A)100,000 .. 200,0000.3%01:00 (00:20)
88 Plight of the Zombie Feb 22, 2016 $4.99N/A (N/A)0 .. 20,0000%00:00 (00:00)
89 Reigning Cats Aug 28, 2015 $1.99N/A (N/A)0 .. 20,0000%00:00 (00:00)
90 1953: NATO vs Warsaw Pact Dec 4, 2014 $19.99N/A (N/A)0 .. 20,0000%00:00 (00:00)
91 BomberZone Jun 10, 2016 $1.99N/A (N/A)20,000 .. 50,0000.83%00:01 (00:00)
92 Space Beret Oct 25, 2016 $0.99N/A (N/A)200,000 .. 500,0001.14%03:00 (04:30)
93 Crab Cakes Rescue Nov 14, 2014 $6.99N/A (N/A)50,000 .. 100,0000.62%00:15 (00:05)
94 Yrminsul Mar 2, 2016 $9.99N/A (N/A)0 .. 20,0000%00:00 (00:00)
95 Robot Rescue Revolution Jul 11, 2014 $4.99N/A (N/A)20,000 .. 50,0000%00:00 (00:00)
96 Blob From Space Oct 15, 2014 $2.03N/A (N/A)20,000 .. 50,0000%00:00 (00:00)
97 Tyler Jan 14, 2016 $2.99N/A (N/A)0 .. 20,0000%00:00 (00:00)
98 Way to Go! Jun 8, 2015 $4.99N/A (N/A)0 .. 20,0000%00:00 (00:00)
99 Attempt[42] Dec 8, 2016 $2.99N/A (N/A)50,000 .. 100,0000%00:00 (00:00)
100 Airstrike HD Mar 23, 2016 $1.99N/A (N/A)100,000 .. 200,0000.52%06:16 (02:05)

Owners of this game also own:

Access restricted.

This feature is only available to users with special access rights. Sorry.

If you want to proceed, you need to register or log in first and then back Steam Spy on Patreon. Look for Indie or Pro pledge.

Don't forget to use the same email as on Steam Spy!

Playtime distribution:

Access restricted.

This feature is only available to users with special access rights. Sorry.

If you want to proceed, you need to register or log in first and then back Steam Spy on Patreon. Look for Indie or Pro pledge.

Don't forget to use the same email as on Steam Spy!

Playtime (2 weeks):

Access restricted.

This feature is only available to users with special access rights. Sorry.

If you want to proceed, you need to register or log in first and then back Steam Spy on Patreon. Look for Indie or Pro pledge.

Don't forget to use the same email as on Steam Spy!

User reviews:

Login required.

Please register or log in to see this information.